sensor_id;sensor_type;location;lat;lon;timestamp;P1;durP1;ratioP1;P2;durP2;ratioP2
59074;SDS011;44860;53.020;6.738;2024-01-30T00:00:30;22.02;;;18.52;;
59074;SDS011;44860;53.020;6.738;2024-01-30T00:02:55;23.15;;;18.83;;
59074;SDS011;44860;53.020;6.738;2024-01-30T00:05:21;24.67;;;18.98;;
59074;SDS011;44860;53.020;6.738;2024-01-30T00:07:53;23.13;;;19.55;;
59074;SDS011;44860;53.020;6.738;2024-01-30T00:10:19;23.92;;;20.08;;
59074;SDS011;44860;53.020;6.738;2024-01-30T00:12:45;24.40;;;20.20;;
59074;SDS011;44860;53.020;6.738;2024-01-30T00:15:12;22.38;;;19.88;;
59074;SDS011;44860;53.020;6.738;2024-01-30T00:17:38;24.95;;;20.10;;
59074;SDS011;44860;53.020;6.738;2024-01-30T00:20:04;23.80;;;20.13;;
59074;SDS011;44860;53.020;6.738;2024-01-30T00:22:33;23.80;;;19.95;;
59074;SDS011;44860;53.020;6.738;2024-01-30T00:24:59;25.85;;;21.23;;
59074;SDS011;44860;53.020;6.738;2024-01-30T00:27:25;25.50;;;20.17;;
59074;SDS011;44860;53.020;6.738;2024-01-30T00:29:52;28.00;;;20.20;;
59074;SDS011;44860;53.020;6.738;2024-01-30T00:32:18;23.00;;;19.85;;
59074;SDS011;44860;53.020;6.738;2024-01-30T00:34:44;25.48;;;20.30;;
59074;SDS011;44860;53.020;6.738;2024-01-30T00:37:10;26.45;;;20.48;;
59074;SDS011;44860;53.020;6.738;2024-01-30T00:39:35;25.88;;;20.33;;
59074;SDS011;44860;53.020;6.738;2024-01-30T00:42:01;29.63;;;21.75;;
59074;SDS011;44860;53.020;6.738;2024-01-30T00:44:27;25.08;;;21.20;;
59074;SDS011;44860;53.020;6.738;2024-01-30T00:46:53;28.95;;;20.40;;
59074;SDS011;44860;53.020;6.738;2024-01-30T00:49:18;24.00;;;19.83;;
59074;SDS011;44860;53.020;6.738;2024-01-30T00:51:45;26.73;;;20.20;;
59074;SDS011;44860;53.020;6.738;2024-01-30T00:54:11;22.83;;;19.77;;
59074;SDS011;44860;53.020;6.738;2024-01-30T00:56:37;26.27;;;20.80;;
59074;SDS011;44860;53.020;6.738;2024-01-30T00:59:02;25.70;;;20.23;;
59074;SDS011;44860;53.020;6.738;2024-01-30T01:01:28;27.25;;;21.02;;
59074;SDS011;44860;53.020;6.738;2024-01-30T01:03:54;23.80;;;19.17;;
59074;SDS011;44860;53.020;6.738;2024-01-30T01:06:21;27.23;;;20.20;;
59074;SDS011;44860;53.020;6.738;2024-01-30T01:08:47;23.30;;;19.60;;
59074;SDS011;44860;53.020;6.738;2024-01-30T01:11:13;23.52;;;18.92;;
59074;SDS011;44860;53.020;6.738;2024-01-30T01:13:39;24.23;;;20.38;;
59074;SDS011;44860;53.020;6.738;2024-01-30T01:16:05;22.20;;;19.60;;
59074;SDS011;44860;53.020;6.738;2024-01-30T01:18:30;24.05;;;19.17;;
59074;SDS011;44860;53.020;6.738;2024-01-30T01:20:56;24.00;;;19.48;;
59074;SDS011;44860;53.020;6.738;2024-01-30T01:23:22;23.08;;;19.15;;
59074;SDS011;44860;53.020;6.738;2024-01-30T01:25:47;21.95;;;18.70;;
59074;SDS011;44860;53.020;6.738;2024-01-30T01:28:13;28.27;;;18.63;;
59074;SDS011;44860;53.020;6.738;2024-01-30T01:30:39;23.98;;;18.58;;
59074;SDS011;44860;53.020;6.738;2024-01-30T01:35:35;27.38;;;19.33;;
59074;SDS011;44860;53.020;6.738;2024-01-30T01:38:01;24.42;;;18.92;;
59074;SDS011;44860;53.020;6.738;2024-01-30T01:40:27;24.10;;;19.08;;
59074;SDS011;44860;53.020;6.738;2024-01-30T01:42:54;24.48;;;18.65;;
59074;SDS011;44860;53.020;6.738;2024-01-30T01:45:21;23.90;;;19.00;;
59074;SDS011;44860;53.020;6.738;2024-01-30T01:47:49;26.90;;;18.70;;
59074;SDS011;44860;53.020;6.738;2024-01-30T01:50:16;22.95;;;18.42;;
59074;SDS011;44860;53.020;6.738;2024-01-30T01:52:43;21.40;;;18.42;;
59074;SDS011;44860;53.020;6.738;2024-01-30T01:55:12;22.95;;;18.63;;
59074;SDS011;44860;53.020;6.738;2024-01-30T01:57:38;22.85;;;18.67;;
59074;SDS011;44860;53.020;6.738;2024-01-30T02:00:04;23.10;;;18.42;;
59074;SDS011;44860;53.020;6.738;2024-01-30T02:02:30;24.88;;;19.27;;
59074;SDS011;44860;53.020;6.738;2024-01-30T02:07:57;21.80;;;18.58;;
59074;SDS011;44860;53.020;6.738;2024-01-30T02:10:24;24.05;;;17.90;;
59074;SDS011;44860;53.020;6.738;2024-01-30T02:15:37;22.77;;;18.02;;
59074;SDS011;44860;53.020;6.738;2024-01-30T02:18:02;24.10;;;17.83;;
59074;SDS011;44860;53.020;6.738;2024-01-30T02:20:34;20.58;;;17.33;;
59074;SDS011;44860;53.020;6.738;2024-01-30T02:23:01;22.42;;;18.17;;
59074;SDS011;44860;53.020;6.738;2024-01-30T02:25:35;23.17;;;17.98;;
59074;SDS011;44860;53.020;6.738;2024-01-30T02:28:03;20.48;;;17.52;;
59074;SDS011;44860;53.020;6.738;2024-01-30T02:30:29;21.38;;;17.40;;
59074;SDS011;44860;53.020;6.738;2024-01-30T02:32:55;21.92;;;17.73;;
59074;SDS011;44860;53.020;6.738;2024-01-30T02:35:20;19.98;;;16.98;;
59074;SDS011;44860;53.020;6.738;2024-01-30T02:37:46;23.33;;;17.55;;
59074;SDS011;44860;53.020;6.738;2024-01-30T02:40:12;24.95;;;17.38;;
59074;SDS011;44860;53.020;6.738;2024-01-30T02:42:37;23.33;;;18.52;;
59074;SDS011;44860;53.020;6.738;2024-01-30T02:45:04;20.45;;;18.08;;
59074;SDS011;44860;53.020;6.738;2024-01-30T02:47:30;22.67;;;17.90;;
59074;SDS011;44860;53.020;6.738;2024-01-30T02:49:55;22.90;;;17.30;;
59074;SDS011;44860;53.020;6.738;2024-01-30T02:52:21;20.83;;;18.05;;
59074;SDS011;44860;53.020;6.738;2024-01-30T02:54:47;21.13;;;18.08;;
59074;SDS011;44860;53.020;6.738;2024-01-30T02:57:12;23.60;;;18.33;;
59074;SDS011;44860;53.020;6.738;2024-01-30T02:59:38;22.80;;;17.20;;
59074;SDS011;44860;53.020;6.738;2024-01-30T03:02:04;22.83;;;17.80;;
59074;SDS011;44860;53.020;6.738;2024-01-30T03:04:29;21.02;;;17.58;;
59074;SDS011;44860;53.020;6.738;2024-01-30T03:06:55;20.40;;;16.95;;
59074;SDS011;44860;53.020;6.738;2024-01-30T03:09:21;20.45;;;17.45;;
59074;SDS011;44860;53.020;6.738;2024-01-30T03:11:46;20.85;;;16.98;;
59074;SDS011;44860;53.020;6.738;2024-01-30T03:17:53;21.48;;;17.02;;
59074;SDS011;44860;53.020;6.738;2024-01-30T03:20:19;23.25;;;17.15;;
59074;SDS011;44860;53.020;6.738;2024-01-30T03:22:44;20.85;;;17.45;;
59074;SDS011;44860;53.020;6.738;2024-01-30T03:25:10;26.10;;;17.23;;
59074;SDS011;44860;53.020;6.738;2024-01-30T03:27:36;20.05;;;16.65;;
59074;SDS011;44860;53.020;6.738;2024-01-30T03:30:01;22.50;;;17.05;;
59074;SDS011;44860;53.020;6.738;2024-01-30T03:32:28;21.77;;;17.27;;
59074;SDS011;44860;53.020;6.738;2024-01-30T03:34:53;21.30;;;17.02;;
59074;SDS011;44860;53.020;6.738;2024-01-30T03:37:19;18.30;;;15.75;;
59074;SDS011;44860;53.020;6.738;2024-01-30T03:39:45;19.23;;;16.25;;
59074;SDS011;44860;53.020;6.738;2024-01-30T03:42:11;19.58;;;15.93;;
59074;SDS011;44860;53.020;6.738;2024-01-30T03:44:36;18.13;;;15.70;;
59074;SDS011;44860;53.020;6.738;2024-01-30T03:47:02;20.45;;;16.48;;
59074;SDS011;44860;53.020;6.738;2024-01-30T03:49:28;20.20;;;16.80;;
59074;SDS011;44860;53.020;6.738;2024-01-30T03:51:53;22.55;;;16.35;;
59074;SDS011;44860;53.020;6.738;2024-01-30T03:57:04;20.65;;;15.98;;
59074;SDS011;44860;53.020;6.738;2024-01-30T03:59:30;17.63;;;15.52;;
59074;SDS011;44860;53.020;6.738;2024-01-30T04:01:56;19.77;;;15.13;;
59074;SDS011;44860;53.020;6.738;2024-01-30T04:04:22;21.95;;;16.45;;
59074;SDS011;44860;53.020;6.738;2024-01-30T04:06:48;19.85;;;15.18;;
59074;SDS011;44860;53.020;6.738;2024-01-30T04:09:14;18.40;;;15.02;;
59074;SDS011;44860;53.020;6.738;2024-01-30T04:11:39;20.98;;;15.95;;
59074;SDS011;44860;53.020;6.738;2024-01-30T04:14:05;19.13;;;15.05;;
59074;SDS011;44860;53.020;6.738;2024-01-30T04:16:31;17.88;;;14.25;;
59074;SDS011;44860;53.020;6.738;2024-01-30T04:18:57;17.35;;;14.93;;
59074;SDS011;44860;53.020;6.738;2024-01-30T04:21:23;17.55;;;14.57;;
59074;SDS011;44860;53.020;6.738;2024-01-30T04:23:50;17.80;;;14.52;;
59074;SDS011;44860;53.020;6.738;2024-01-30T04:26:18;16.92;;;14.43;;
59074;SDS011;44860;53.020;6.738;2024-01-30T04:28:44;20.58;;;14.80;;
59074;SDS011;44860;53.020;6.738;2024-01-30T04:31:10;19.33;;;14.68;;
59074;SDS011;44860;53.020;6.738;2024-01-30T04:33:36;17.75;;;14.88;;
59074;SDS011;44860;53.020;6.738;2024-01-30T04:36:03;20.13;;;15.43;;
59074;SDS011;44860;53.020;6.738;2024-01-30T04:38:30;17.98;;;14.93;;
59074;SDS011;44860;53.020;6.738;2024-01-30T04:40:56;18.30;;;14.73;;
59074;SDS011;44860;53.020;6.738;2024-01-30T04:43:22;16.90;;;14.63;;
59074;SDS011;44860;53.020;6.738;2024-01-30T04:45:48;21.30;;;14.68;;
59074;SDS011;44860;53.020;6.738;2024-01-30T04:48:14;17.50;;;14.32;;
59074;SDS011;44860;53.020;6.738;2024-01-30T04:50:40;18.83;;;13.98;;
59074;SDS011;44860;53.020;6.738;2024-01-30T04:53:05;18.27;;;15.00;;
59074;SDS011;44860;53.020;6.738;2024-01-30T04:55:32;20.05;;;14.55;;
59074;SDS011;44860;53.020;6.738;2024-01-30T04:57:58;18.75;;;14.68;;
59074;SDS011;44860;53.020;6.738;2024-01-30T05:00:24;20.15;;;14.68;;
59074;SDS011;44860;53.020;6.738;2024-01-30T05:02:49;18.90;;;15.00;;
59074;SDS011;44860;53.020;6.738;2024-01-30T05:05:15;18.27;;;14.98;;
59074;SDS011;44860;53.020;6.738;2024-01-30T05:07:41;18.90;;;15.13;;
59074;SDS011;44860;53.020;6.738;2024-01-30T05:10:07;20.45;;;15.45;;
59074;SDS011;44860;53.020;6.738;2024-01-30T05:12:33;22.45;;;15.57;;
59074;SDS011;44860;53.020;6.738;2024-01-30T05:14:59;19.38;;;16.15;;
59074;SDS011;44860;53.020;6.738;2024-01-30T05:17:24;19.05;;;15.38;;
59074;SDS011;44860;53.020;6.738;2024-01-30T05:19:50;19.65;;;15.93;;
59074;SDS011;44860;53.020;6.738;2024-01-30T05:22:16;19.80;;;15.27;;
59074;SDS011;44860;53.020;6.738;2024-01-30T05:24:43;19.13;;;15.20;;
59074;SDS011;44860;53.020;6.738;2024-01-30T05:27:09;20.33;;;16.05;;
59074;SDS011;44860;53.020;6.738;2024-01-30T05:29:35;17.80;;;14.20;;
59074;SDS011;44860;53.020;6.738;2024-01-30T05:32:01;18.13;;;15.02;;
59074;SDS011;44860;53.020;6.738;2024-01-30T05:34:27;18.88;;;14.40;;
59074;SDS011;44860;53.020;6.738;2024-01-30T05:36:52;18.45;;;15.10;;
59074;SDS011;44860;53.020;6.738;2024-01-30T05:39:18;18.10;;;14.77;;
59074;SDS011;44860;53.020;6.738;2024-01-30T05:41:43;18.73;;;15.18;;
59074;SDS011;44860;53.020;6.738;2024-01-30T05:44:09;20.00;;;15.18;;
59074;SDS011;44860;53.020;6.738;2024-01-30T05:46:35;17.35;;;14.85;;
59074;SDS011;44860;53.020;6.738;2024-01-30T05:49:01;19.25;;;16.17;;
59074;SDS011;44860;53.020;6.738;2024-01-30T05:51:26;16.90;;;15.07;;
59074;SDS011;44860;53.020;6.738;2024-01-30T05:53:57;18.77;;;14.80;;
59074;SDS011;44860;53.020;6.738;2024-01-30T05:56:23;17.80;;;14.73;;
59074;SDS011;44860;53.020;6.738;2024-01-30T05:58:49;18.13;;;15.50;;
59074;SDS011;44860;53.020;6.738;2024-01-30T06:01:15;18.80;;;14.75;;
59074;SDS011;44860;53.020;6.738;2024-01-30T06:03:41;20.42;;;14.82;;
59074;SDS011;44860;53.020;6.738;2024-01-30T06:06:08;20.17;;;15.10;;
59074;SDS011;44860;53.020;6.738;2024-01-30T06:08:34;19.40;;;15.45;;
59074;SDS011;44860;53.020;6.738;2024-01-30T06:11:00;19.83;;;14.93;;
59074;SDS011;44860;53.020;6.738;2024-01-30T06:13:26;20.67;;;14.60;;
59074;SDS011;44860;53.020;6.738;2024-01-30T06:15:52;19.67;;;14.93;;
59074;SDS011;44860;53.020;6.738;2024-01-30T06:18:17;20.75;;;15.20;;
59074;SDS011;44860;53.020;6.738;2024-01-30T06:20:43;19.50;;;14.93;;
59074;SDS011;44860;53.020;6.738;2024-01-30T06:23:09;16.90;;;14.65;;
59074;SDS011;44860;53.020;6.738;2024-01-30T06:25:35;20.15;;;16.08;;
59074;SDS011;44860;53.020;6.738;2024-01-30T06:28:00;19.50;;;14.52;;
59074;SDS011;44860;53.020;6.738;2024-01-30T06:30:26;18.15;;;14.70;;
59074;SDS011;44860;53.020;6.738;2024-01-30T06:32:52;22.25;;;15.07;;
59074;SDS011;44860;53.020;6.738;2024-01-30T06:35:17;20.58;;;15.13;;
59074;SDS011;44860;53.020;6.738;2024-01-30T06:37:43;18.10;;;15.00;;
59074;SDS011;44860;53.020;6.738;2024-01-30T06:40:09;17.75;;;15.30;;
59074;SDS011;44860;53.020;6.738;2024-01-30T06:42:35;16.52;;;14.60;;
59074;SDS011;44860;53.020;6.738;2024-01-30T06:45:01;20.27;;;14.80;;
59074;SDS011;44860;53.020;6.738;2024-01-30T06:47:26;17.95;;;15.18;;
59074;SDS011;44860;53.020;6.738;2024-01-30T06:49:53;18.95;;;14.55;;
59074;SDS011;44860;53.020;6.738;2024-01-30T06:52:19;18.13;;;14.48;;
59074;SDS011;44860;53.020;6.738;2024-01-30T06:54:45;18.90;;;15.40;;
59074;SDS011;44860;53.020;6.738;2024-01-30T06:57:10;17.67;;;15.00;;
59074;SDS011;44860;53.020;6.738;2024-01-30T06:59:37;19.70;;;14.77;;
59074;SDS011;44860;53.020;6.738;2024-01-30T07:02:08;17.77;;;14.55;;
59074;SDS011;44860;53.020;6.738;2024-01-30T07:04:37;17.98;;;15.27;;
59074;SDS011;44860;53.020;6.738;2024-01-30T07:07:04;19.83;;;15.65;;
59074;SDS011;44860;53.020;6.738;2024-01-30T07:09:36;16.63;;;14.73;;
59074;SDS011;44860;53.020;6.738;2024-01-30T07:12:02;17.50;;;14.45;;
59074;SDS011;44860;53.020;6.738;2024-01-30T07:14:28;17.25;;;14.27;;
59074;SDS011;44860;53.020;6.738;2024-01-30T07:16:54;17.92;;;15.05;;
59074;SDS011;44860;53.020;6.738;2024-01-30T07:19:19;19.92;;;15.13;;
59074;SDS011;44860;53.020;6.738;2024-01-30T07:25:26;18.30;;;14.80;;
59074;SDS011;44860;53.020;6.738;2024-01-30T07:27:52;19.88;;;14.70;;
59074;SDS011;44860;53.020;6.738;2024-01-30T07:30:19;19.45;;;15.07;;
59074;SDS011;44860;53.020;6.738;2024-01-30T07:32:45;20.10;;;14.80;;
59074;SDS011;44860;53.020;6.738;2024-01-30T07:35:11;20.33;;;15.15;;
59074;SDS011;44860;53.020;6.738;2024-01-30T07:37:37;18.20;;;14.50;;
59074;SDS011;44860;53.020;6.738;2024-01-30T07:40:03;18.25;;;14.27;;
59074;SDS011;44860;53.020;6.738;2024-01-30T07:42:31;18.42;;;15.38;;
59074;SDS011;44860;53.020;6.738;2024-01-30T07:44:57;22.73;;;15.65;;
59074;SDS011;44860;53.020;6.738;2024-01-30T07:47:23;22.33;;;15.95;;
59074;SDS011;44860;53.020;6.738;2024-01-30T07:49:49;22.42;;;16.35;;
59074;SDS011;44860;53.020;6.738;2024-01-30T07:52:14;18.85;;;14.75;;
59074;SDS011;44860;53.020;6.738;2024-01-30T07:54:49;18.75;;;15.40;;
59074;SDS011;44860;53.020;6.738;2024-01-30T07:57:16;19.33;;;14.65;;
59074;SDS011;44860;53.020;6.738;2024-01-30T07:59:42;19.65;;;15.27;;
59074;SDS011;44860;53.020;6.738;2024-01-30T08:02:14;19.33;;;14.80;;
59074;SDS011;44860;53.020;6.738;2024-01-30T08:04:40;17.13;;;15.07;;
59074;SDS011;44860;53.020;6.738;2024-01-30T08:07:06;20.83;;;15.05;;
59074;SDS011;44860;53.020;6.738;2024-01-30T08:09:31;18.52;;;14.60;;
59074;SDS011;44860;53.020;6.738;2024-01-30T08:11:57;18.80;;;15.05;;
59074;SDS011;44860;53.020;6.738;2024-01-30T08:14:23;19.17;;;14.52;;
59074;SDS011;44860;53.020;6.738;2024-01-30T08:16:49;20.90;;;15.38;;
59074;SDS011;44860;53.020;6.738;2024-01-30T08:19:15;19.23;;;15.20;;
59074;SDS011;44860;53.020;6.738;2024-01-30T08:21:41;18.45;;;14.23;;
59074;SDS011;44860;53.020;6.738;2024-01-30T08:24:06;17.60;;;14.73;;
59074;SDS011;44860;53.020;6.738;2024-01-30T08:26:32;17.90;;;14.80;;
59074;SDS011;44860;53.020;6.738;2024-01-30T08:32:39;16.95;;;15.02;;
59074;SDS011;44860;53.020;6.738;2024-01-30T08:35:05;17.27;;;14.13;;
59074;SDS011;44860;53.020;6.738;2024-01-30T08:37:31;18.35;;;14.93;;
59074;SDS011;44860;53.020;6.738;2024-01-30T08:39:57;20.30;;;14.60;;
59074;SDS011;44860;53.020;6.738;2024-01-30T08:42:23;17.90;;;14.68;;
59074;SDS011;44860;53.020;6.738;2024-01-30T08:48:04;19.60;;;14.73;;
59074;SDS011;44860;53.020;6.738;2024-01-30T08:50:30;19.80;;;14.63;;
59074;SDS011;44860;53.020;6.738;2024-01-30T08:56:37;18.67;;;13.70;;
59074;SDS011;44860;53.020;6.738;2024-01-30T08:59:02;21.23;;;14.05;;
59074;SDS011;44860;53.020;6.738;2024-01-30T09:01:28;19.42;;;14.55;;
59074;SDS011;44860;53.020;6.738;2024-01-30T09:03:54;19.50;;;14.52;;
59074;SDS011;44860;53.020;6.738;2024-01-30T09:06:19;18.60;;;14.13;;
59074;SDS011;44860;53.020;6.738;2024-01-30T09:08:45;17.80;;;14.23;;
59074;SDS011;44860;53.020;6.738;2024-01-30T09:11:12;17.60;;;14.15;;
59074;SDS011;44860;53.020;6.738;2024-01-30T09:13:39;19.27;;;14.00;;
59074;SDS011;44860;53.020;6.738;2024-01-30T09:16:05;16.73;;;13.85;;
59074;SDS011;44860;53.020;6.738;2024-01-30T09:18:31;18.20;;;13.90;;
59074;SDS011;44860;53.020;6.738;2024-01-30T09:20:56;18.00;;;13.65;;
59074;SDS011;44860;53.020;6.738;2024-01-30T09:23:23;17.38;;;14.10;;
59074;SDS011;44860;53.020;6.738;2024-01-30T09:25:48;19.27;;;14.55;;
59074;SDS011;44860;53.020;6.738;2024-01-30T09:28:14;20.10;;;13.85;;
59074;SDS011;44860;53.020;6.738;2024-01-30T09:30:40;19.02;;;14.23;;
59074;SDS011;44860;53.020;6.738;2024-01-30T09:35:42;18.38;;;13.23;;
59074;SDS011;44860;53.020;6.738;2024-01-30T09:38:09;16.73;;;13.73;;
59074;SDS011;44860;53.020;6.738;2024-01-30T09:40:35;17.15;;;13.40;;
59074;SDS011;44860;53.020;6.738;2024-01-30T09:43:01;17.50;;;13.05;;
59074;SDS011;44860;53.020;6.738;2024-01-30T09:45:27;22.88;;;13.52;;
59074;SDS011;44860;53.020;6.738;2024-01-30T09:47:54;18.77;;;13.13;;
59074;SDS011;44860;53.020;6.738;2024-01-30T09:50:20;18.88;;;13.00;;
59074;SDS011;44860;53.020;6.738;2024-01-30T09:52:46;18.85;;;13.32;;
59074;SDS011;44860;53.020;6.738;2024-01-30T09:55:13;16.85;;;13.50;;
59074;SDS011;44860;53.020;6.738;2024-01-30T09:57:39;16.75;;;13.50;;
59074;SDS011;44860;53.020;6.738;2024-01-30T10:03:49;18.48;;;13.10;;
59074;SDS011;44860;53.020;6.738;2024-01-30T10:06:17;20.13;;;13.52;;
59074;SDS011;44860;53.020;6.738;2024-01-30T10:08:43;17.20;;;13.07;;
59074;SDS011;44860;53.020;6.738;2024-01-30T10:11:09;17.33;;;12.57;;
59074;SDS011;44860;53.020;6.738;2024-01-30T10:13:34;16.40;;;12.98;;
59074;SDS011;44860;53.020;6.738;2024-01-30T10:16:00;18.70;;;13.40;;
59074;SDS011;44860;53.020;6.738;2024-01-30T10:18:28;17.55;;;12.68;;
59074;SDS011;44860;53.020;6.738;2024-01-30T10:20:53;16.98;;;12.95;;
59074;SDS011;44860;53.020;6.738;2024-01-30T10:23:19;19.30;;;12.80;;
59074;SDS011;44860;53.020;6.738;2024-01-30T10:28:45;19.20;;;13.07;;
59074;SDS011;44860;53.020;6.738;2024-01-30T10:31:16;15.63;;;12.75;;
59074;SDS011;44860;53.020;6.738;2024-01-30T10:33:42;19.08;;;12.82;;
59074;SDS011;44860;53.020;6.738;2024-01-30T10:36:10;18.30;;;13.13;;
59074;SDS011;44860;53.020;6.738;2024-01-30T10:38:39;17.30;;;13.05;;
59074;SDS011;44860;53.020;6.738;2024-01-30T10:41:07;22.23;;;12.93;;
59074;SDS011;44860;53.020;6.738;2024-01-30T10:43:40;18.08;;;13.50;;
59074;SDS011;44860;53.020;6.738;2024-01-30T10:46:11;17.15;;;13.40;;
59074;SDS011;44860;53.020;6.738;2024-01-30T10:48:56;17.27;;;12.82;;
59074;SDS011;44860;53.020;6.738;2024-01-30T10:51:26;17.30;;;13.18;;
59074;SDS011;44860;53.020;6.738;2024-01-30T10:53:52;19.25;;;13.23;;
59074;SDS011;44860;53.020;6.738;2024-01-30T10:56:22;19.42;;;13.98;;
59074;SDS011;44860;53.020;6.738;2024-01-30T10:58:52;19.42;;;13.73;;
59074;SDS011;44860;53.020;6.738;2024-01-30T11:01:19;18.80;;;13.68;;
59074;SDS011;44860;53.020;6.738;2024-01-30T11:03:48;18.17;;;13.10;;
59074;SDS011;44860;53.020;6.738;2024-01-30T11:06:17;17.17;;;13.27;;
59074;SDS011;44860;53.020;6.738;2024-01-30T11:08:45;19.23;;;13.57;;
59074;SDS011;44860;53.020;6.738;2024-01-30T11:11:11;18.38;;;13.50;;
59074;SDS011;44860;53.020;6.738;2024-01-30T11:17:00;17.95;;;13.57;;
59074;SDS011;44860;53.020;6.738;2024-01-30T11:19:26;15.88;;;13.43;;
59074;SDS011;44860;53.020;6.738;2024-01-30T11:25:33;18.60;;;13.30;;
59074;SDS011;44860;53.020;6.738;2024-01-30T11:27:59;21.48;;;13.27;;
59074;SDS011;44860;53.020;6.738;2024-01-30T11:30:25;22.70;;;13.82;;
59074;SDS011;44860;53.020;6.738;2024-01-30T11:35:24;20.60;;;13.75;;
59074;SDS011;44860;53.020;6.738;2024-01-30T11:40:27;22.42;;;14.32;;
59074;SDS011;44860;53.020;6.738;2024-01-30T11:42:55;21.45;;;13.75;;
59074;SDS011;44860;53.020;6.738;2024-01-30T11:45:21;21.95;;;13.90;;
59074;SDS011;44860;53.020;6.738;2024-01-30T11:47:46;22.88;;;14.18;;
59074;SDS011;44860;53.020;6.738;2024-01-30T11:50:12;20.45;;;13.98;;
59074;SDS011;44860;53.020;6.738;2024-01-30T11:52:39;21.00;;;14.40;;
59074;SDS011;44860;53.020;6.738;2024-01-30T11:55:04;18.40;;;14.27;;
59074;SDS011;44860;53.020;6.738;2024-01-30T11:57:31;19.83;;;13.93;;
59074;SDS011;44860;53.020;6.738;2024-01-30T11:59:56;21.20;;;13.77;;
59074;SDS011;44860;53.020;6.738;2024-01-30T12:02:22;21.38;;;14.52;;
59074;SDS011;44860;53.020;6.738;2024-01-30T12:04:48;23.10;;;14.68;;
59074;SDS011;44860;53.020;6.738;2024-01-30T12:07:14;20.88;;;14.45;;
59074;SDS011;44860;53.020;6.738;2024-01-30T12:09:41;21.45;;;16.13;;
59074;SDS011;44860;53.020;6.738;2024-01-30T12:12:07;21.90;;;15.52;;
59074;SDS011;44860;53.020;6.738;2024-01-30T12:14:37;25.45;;;17.30;;
59074;SDS011;44860;53.020;6.738;2024-01-30T12:17:04;24.73;;;21.40;;
59074;SDS011;44860;53.020;6.738;2024-01-30T12:19:30;30.63;;;23.15;;
59074;SDS011;44860;53.020;6.738;2024-01-30T12:21:56;26.27;;;20.33;;
59074;SDS011;44860;53.020;6.738;2024-01-30T12:24:26;27.52;;;16.88;;
59074;SDS011;44860;53.020;6.738;2024-01-30T12:26:52;27.95;;;14.43;;
59074;SDS011;44860;53.020;6.738;2024-01-30T12:33:03;23.75;;;11.20;;
59074;SDS011;44860;53.020;6.738;2024-01-30T12:35:31;23.70;;;12.00;;
59074;SDS011;44860;53.020;6.738;2024-01-30T12:37:57;20.13;;;10.95;;
59074;SDS011;44860;53.020;6.738;2024-01-30T12:40:23;19.23;;;11.65;;
59074;SDS011;44860;53.020;6.738;2024-01-30T12:42:51;16.83;;;9.80;;
59074;SDS011;44860;53.020;6.738;2024-01-30T12:48:58;16.38;;;9.30;;
59074;SDS011;44860;53.020;6.738;2024-01-30T12:51:23;13.65;;;8.00;;
59074;SDS011;44860;53.020;6.738;2024-01-30T12:53:53;15.35;;;7.72;;
59074;SDS011;44860;53.020;6.738;2024-01-30T12:56:18;13.43;;;7.05;;
59074;SDS011;44860;53.020;6.738;2024-01-30T12:58:44;11.85;;;5.90;;
59074;SDS011;44860;53.020;6.738;2024-01-30T13:01:11;6.82;;;3.35;;
59074;SDS011;44860;53.020;6.738;2024-01-30T13:03:37;6.63;;;3.15;;
59074;SDS011;44860;53.020;6.738;2024-01-30T13:06:03;6.97;;;2.85;;
59074;SDS011;44860;53.020;6.738;2024-01-30T13:08:29;5.93;;;3.90;;
59074;SDS011;44860;53.020;6.738;2024-01-30T13:10:55;5.28;;;2.40;;
59074;SDS011;44860;53.020;6.738;2024-01-30T13:13:21;4.47;;;1.85;;
59074;SDS011;44860;53.020;6.738;2024-01-30T13:15:47;3.05;;;1.80;;
59074;SDS011;44860;53.020;6.738;2024-01-30T13:18:13;3.50;;;2.00;;
59074;SDS011;44860;53.020;6.738;2024-01-30T13:20:39;6.18;;;2.60;;
59074;SDS011;44860;53.020;6.738;2024-01-30T13:23:05;5.15;;;2.13;;
59074;SDS011;44860;53.020;6.738;2024-01-30T13:25:31;5.63;;;2.03;;
59074;SDS011;44860;53.020;6.738;2024-01-30T13:27:56;5.43;;;2.40;;
59074;SDS011;44860;53.020;6.738;2024-01-30T13:30:22;7.32;;;2.30;;
59074;SDS011;44860;53.020;6.738;2024-01-30T13:32:48;3.65;;;2.00;;
59074;SDS011;44860;53.020;6.738;2024-01-30T13:35:13;2.90;;;1.83;;
59074;SDS011;44860;53.020;6.738;2024-01-30T13:37:42;3.45;;;1.52;;
59074;SDS011;44860;53.020;6.738;2024-01-30T13:40:08;4.22;;;1.88;;
59074;SDS011;44860;53.020;6.738;2024-01-30T13:42:34;3.70;;;1.90;;
59074;SDS011;44860;53.020;6.738;2024-01-30T13:45:00;3.75;;;1.88;;
59074;SDS011;44860;53.020;6.738;2024-01-30T13:47:26;4.70;;;1.80;;
59074;SDS011;44860;53.020;6.738;2024-01-30T13:49:51;2.45;;;1.50;;
59074;SDS011;44860;53.020;6.738;2024-01-30T13:52:18;5.18;;;2.10;;
59074;SDS011;44860;53.020;6.738;2024-01-30T13:54:43;3.30;;;1.67;;
59074;SDS011;44860;53.020;6.738;2024-01-30T13:57:09;4.28;;;2.20;;
59074;SDS011;44860;53.020;6.738;2024-01-30T13:59:35;4.00;;;2.22;;
59074;SDS011;44860;53.020;6.738;2024-01-30T14:02:02;3.03;;;2.00;;
59074;SDS011;44860;53.020;6.738;2024-01-30T14:08:54;5.40;;;1.80;;
59074;SDS011;44860;53.020;6.738;2024-01-30T14:11:19;4.03;;;1.90;;
59074;SDS011;44860;53.020;6.738;2024-01-30T14:13:45;4.20;;;2.00;;
59074;SDS011;44860;53.020;6.738;2024-01-30T14:16:11;2.50;;;1.60;;
59074;SDS011;44860;53.020;6.738;2024-01-30T14:18:36;6.70;;;1.90;;
59074;SDS011;44860;53.020;6.738;2024-01-30T14:21:02;3.75;;;1.95;;
59074;SDS011;44860;53.020;6.738;2024-01-30T14:23:28;7.22;;;2.40;;
59074;SDS011;44860;53.020;6.738;2024-01-30T14:25:53;4.75;;;3.00;;
59074;SDS011;44860;53.020;6.738;2024-01-30T14:28:19;6.80;;;3.03;;
59074;SDS011;44860;53.020;6.738;2024-01-30T14:30:44;6.85;;;3.20;;
59074;SDS011;44860;53.020;6.738;2024-01-30T14:33:10;7.85;;;3.50;;
59074;SDS011;44860;53.020;6.738;2024-01-30T14:35:36;8.30;;;4.38;;
59074;SDS011;44860;53.020;6.738;2024-01-30T14:38:02;8.60;;;3.80;;
59074;SDS011;44860;53.020;6.738;2024-01-30T14:40:30;6.88;;;3.97;;
59074;SDS011;44860;53.020;6.738;2024-01-30T14:42:56;7.65;;;3.45;;
59074;SDS011;44860;53.020;6.738;2024-01-30T14:45:21;7.13;;;3.72;;
59074;SDS011;44860;53.020;6.738;2024-01-30T14:47:47;5.75;;;2.97;;
59074;SDS011;44860;53.020;6.738;2024-01-30T14:50:13;6.78;;;3.60;;
59074;SDS011;44860;53.020;6.738;2024-01-30T14:52:41;6.15;;;3.30;;
59074;SDS011;44860;53.020;6.738;2024-01-30T14:55:07;6.20;;;3.05;;
59074;SDS011;44860;53.020;6.738;2024-01-30T14:57:33;8.73;;;4.00;;
59074;SDS011;44860;53.020;6.738;2024-01-30T15:00:00;7.30;;;3.72;;
59074;SDS011;44860;53.020;6.738;2024-01-30T15:02:25;6.95;;;3.50;;
59074;SDS011;44860;53.020;6.738;2024-01-30T15:04:51;9.15;;;3.90;;
59074;SDS011;44860;53.020;6.738;2024-01-30T15:07:17;5.82;;;3.20;;
59074;SDS011;44860;53.020;6.738;2024-01-30T15:09:43;8.88;;;3.80;;
59074;SDS011;44860;53.020;6.738;2024-01-30T15:12:09;8.38;;;3.72;;
59074;SDS011;44860;53.020;6.738;2024-01-30T15:14:35;6.97;;;3.30;;
59074;SDS011;44860;53.020;6.738;2024-01-30T15:19:43;5.47;;;2.80;;
59074;SDS011;44860;53.020;6.738;2024-01-30T15:22:09;8.27;;;3.33;;
59074;SDS011;44860;53.020;6.738;2024-01-30T15:24:35;4.07;;;2.67;;